sensor_id;sensor_type;location;lat;lon;timestamp;temperature;humidity
2867;DHT22;1441;48.886;8.728;2023-09-07T00:00:42;20.10;79.80
2867;DHT22;1441;48.886;8.728;2023-09-07T00:03:07;20.10;79.60
2867;DHT22;1441;48.886;8.728;2023-09-07T00:05:33;20.10;79.70
2867;DHT22;1441;48.886;8.728;2023-09-07T00:07:58;20.10;79.70
2867;DHT22;1441;48.886;8.728;2023-09-07T00:10:24;20.10;79.70
2867;DHT22;1441;48.886;8.728;2023-09-07T00:12:51;20.00;80.00
2867;DHT22;1441;48.886;8.728;2023-09-07T00:15:17;20.00;80.20
2867;DHT22;1441;48.886;8.728;2023-09-07T00:17:44;20.00;79.90
2867;DHT22;1441;48.886;8.728;2023-09-07T00:20:10;20.00;80.00
2867;DHT22;1441;48.886;8.728;2023-09-07T00:22:37;20.00;80.10
2867;DHT22;1441;48.886;8.728;2023-09-07T00:25:03;19.90;80.50
2867;DHT22;1441;48.886;8.728;2023-09-07T00:27:32;19.80;80.70
2867;DHT22;1441;48.886;8.728;2023-09-07T00:29:59;19.70;81.10
2867;DHT22;1441;48.886;8.728;2023-09-07T00:32:24;19.60;81.60
2867;DHT22;1441;48.886;8.728;2023-09-07T00:34:50;19.50;81.60
2867;DHT22;1441;48.886;8.728;2023-09-07T00:37:15;19.50;82.00
2867;DHT22;1441;48.886;8.728;2023-09-07T00:39:41;19.40;82.40
2867;DHT22;1441;48.886;8.728;2023-09-07T00:42:06;19.30;82.80
2867;DHT22;1441;48.886;8.728;2023-09-07T00:44:32;19.20;83.40
2867;DHT22;1441;48.886;8.728;2023-09-07T00:46:57;19.20;83.70
2867;DHT22;1441;48.886;8.728;2023-09-07T00:49:24;19.20;83.60
2867;DHT22;1441;48.886;8.728;2023-09-07T00:51:51;19.10;83.80
2867;DHT22;1441;48.886;8.728;2023-09-07T00:54:16;19.00;84.30
2867;DHT22;1441;48.886;8.728;2023-09-07T00:56:42;18.90;84.70
2867;DHT22;1441;48.886;8.728;2023-09-07T00:59:08;18.80;85.10
2867;DHT22;1441;48.886;8.728;2023-09-07T01:01:35;18.80;85.50
2867;DHT22;1441;48.886;8.728;2023-09-07T01:04:01;18.70;85.70
2867;DHT22;1441;48.886;8.728;2023-09-07T01:07:00;18.70;85.60
2867;DHT22;1441;48.886;8.728;2023-09-07T01:09:30;18.80;85.50
2867;DHT22;1441;48.886;8.728;2023-09-07T01:11:57;18.70;85.30
2867;DHT22;1441;48.886;8.728;2023-09-07T01:14:22;18.70;85.60
2867;DHT22;1441;48.886;8.728;2023-09-07T01:16:49;18.70;85.50
2867;DHT22;1441;48.886;8.728;2023-09-07T01:19:15;18.70;85.50
2867;DHT22;1441;48.886;8.728;2023-09-07T01:21:41;18.70;85.40
2867;DHT22;1441;48.886;8.728;2023-09-07T01:24:08;18.70;85.30
2867;DHT22;1441;48.886;8.728;2023-09-07T01:26:35;18.70;85.30
2867;DHT22;1441;48.886;8.728;2023-09-07T01:29:08;18.70;85.10
2867;DHT22;1441;48.886;8.728;2023-09-07T01:31:37;18.90;84.50
2867;DHT22;1441;48.886;8.728;2023-09-07T01:34:04;18.80;84.80
2867;DHT22;1441;48.886;8.728;2023-09-07T01:36:30;18.70;84.90
2867;DHT22;1441;48.886;8.728;2023-09-07T01:38:55;18.80;84.70
2867;DHT22;1441;48.886;8.728;2023-09-07T01:41:21;18.70;85.10
2867;DHT22;1441;48.886;8.728;2023-09-07T01:43:46;18.60;85.70
2867;DHT22;1441;48.886;8.728;2023-09-07T01:46:12;18.50;86.10
2867;DHT22;1441;48.886;8.728;2023-09-07T01:48:37;18.40;86.40
2867;DHT22;1441;48.886;8.728;2023-09-07T01:51:03;18.40;86.50
2867;DHT22;1441;48.886;8.728;2023-09-07T01:53:28;18.30;86.60
2867;DHT22;1441;48.886;8.728;2023-09-07T01:55:55;18.20;87.00
2867;DHT22;1441;48.886;8.728;2023-09-07T01:58:21;18.20;87.40
2867;DHT22;1441;48.886;8.728;2023-09-07T02:00:47;18.10;87.80
2867;DHT22;1441;48.886;8.728;2023-09-07T02:03:12;17.90;88.30
2867;DHT22;1441;48.886;8.728;2023-09-07T02:05:39;17.80;89.00
2867;DHT22;1441;48.886;8.728;2023-09-07T02:08:04;17.70;89.50
2867;DHT22;1441;48.886;8.728;2023-09-07T02:10:30;17.60;90.80
2867;DHT22;1441;48.886;8.728;2023-09-07T02:12:56;17.40;92.20
2867;DHT22;1441;48.886;8.728;2023-09-07T02:15:23;17.40;91.60
2867;DHT22;1441;48.886;8.728;2023-09-07T02:17:49;17.30;91.50
2867;DHT22;1441;48.886;8.728;2023-09-07T02:20:14;17.20;91.60
2867;DHT22;1441;48.886;8.728;2023-09-07T02:22:40;17.20;91.70
2867;DHT22;1441;48.886;8.728;2023-09-07T02:25:06;17.30;91.60
2867;DHT22;1441;48.886;8.728;2023-09-07T02:27:35;17.20;91.70
2867;DHT22;1441;48.886;8.728;2023-09-07T02:30:02;17.30;91.70
2867;DHT22;1441;48.886;8.728;2023-09-07T02:32:28;17.30;91.60
2867;DHT22;1441;48.886;8.728;2023-09-07T02:34:53;17.30;91.60
2867;DHT22;1441;48.886;8.728;2023-09-07T02:37:19;17.30;91.70
2867;DHT22;1441;48.886;8.728;2023-09-07T02:39:45;17.30;91.70
2867;DHT22;1441;48.886;8.728;2023-09-07T02:42:10;17.20;92.10
2867;DHT22;1441;48.886;8.728;2023-09-07T02:44:36;17.20;92.30
2867;DHT22;1441;48.886;8.728;2023-09-07T02:47:01;17.20;92.40
2867;DHT22;1441;48.886;8.728;2023-09-07T02:49:27;17.10;92.40
2867;DHT22;1441;48.886;8.728;2023-09-07T02:51:52;17.00;92.80
2867;DHT22;1441;48.886;8.728;2023-09-07T02:54:18;16.90;93.00
2867;DHT22;1441;48.886;8.728;2023-09-07T02:56:44;16.80;93.70
2867;DHT22;1441;48.886;8.728;2023-09-07T02:59:09;16.80;94.00
2867;DHT22;1441;48.886;8.728;2023-09-07T03:01:35;16.90;93.70
2867;DHT22;1441;48.886;8.728;2023-09-07T03:04:00;16.90;93.60
2867;DHT22;1441;48.886;8.728;2023-09-07T03:06:26;16.90;93.90
2867;DHT22;1441;48.886;8.728;2023-09-07T03:08:51;16.80;94.20
2867;DHT22;1441;48.886;8.728;2023-09-07T03:11:18;16.70;94.60
2867;DHT22;1441;48.886;8.728;2023-09-07T03:13:43;16.60;94.80
2867;DHT22;1441;48.886;8.728;2023-09-07T03:16:09;16.50;94.90
2867;DHT22;1441;48.886;8.728;2023-09-07T03:18:34;16.50;94.90
2867;DHT22;1441;48.886;8.728;2023-09-07T03:21:01;16.50;95.00
2867;DHT22;1441;48.886;8.728;2023-09-07T03:23:28;16.50;95.10
2867;DHT22;1441;48.886;8.728;2023-09-07T03:25:54;16.50;95.10
2867;DHT22;1441;48.886;8.728;2023-09-07T03:28:19;16.50;95.20
2867;DHT22;1441;48.886;8.728;2023-09-07T03:30:45;16.50;95.20
2867;DHT22;1441;48.886;8.728;2023-09-07T03:33:11;16.50;95.20
2867;DHT22;1441;48.886;8.728;2023-09-07T03:35:36;16.50;95.10
2867;DHT22;1441;48.886;8.728;2023-09-07T03:38:03;16.40;95.10
2867;DHT22;1441;48.886;8.728;2023-09-07T03:40:28;16.40;95.10
2867;DHT22;1441;48.886;8.728;2023-09-07T03:42:54;16.30;95.70
2867;DHT22;1441;48.886;8.728;2023-09-07T03:45:20;16.30;95.60
2867;DHT22;1441;48.886;8.728;2023-09-07T03:47:45;16.30;95.70
2867;DHT22;1441;48.886;8.728;2023-09-07T03:50:11;16.30;95.50
2867;DHT22;1441;48.886;8.728;2023-09-07T03:52:36;16.30;95.40
2867;DHT22;1441;48.886;8.728;2023-09-07T03:55:02;16.30;95.50
2867;DHT22;1441;48.886;8.728;2023-09-07T03:57:28;16.30;95.60
2867;DHT22;1441;48.886;8.728;2023-09-07T03:59:54;16.30;95.80
2867;DHT22;1441;48.886;8.728;2023-09-07T04:02:23;16.30;95.90
2867;DHT22;1441;48.886;8.728;2023-09-07T04:04:50;16.20;95.60
2867;DHT22;1441;48.886;8.728;2023-09-07T04:07:16;16.10;96.00
2867;DHT22;1441;48.886;8.728;2023-09-07T04:09:42;16.10;96.50
2867;DHT22;1441;48.886;8.728;2023-09-07T04:12:08;16.10;96.60
2867;DHT22;1441;48.886;8.728;2023-09-07T04:14:34;16.10;96.80
2867;DHT22;1441;48.886;8.728;2023-09-07T04:17:00;16.10;97.00
2867;DHT22;1441;48.886;8.728;2023-09-07T04:19:26;16.10;97.30
2867;DHT22;1441;48.886;8.728;2023-09-07T04:21:51;16.00;97.70
2867;DHT22;1441;48.886;8.728;2023-09-07T04:24:17;16.00;97.70
2867;DHT22;1441;48.886;8.728;2023-09-07T04:26:43;16.00;98.00
2867;DHT22;1441;48.886;8.728;2023-09-07T04:29:08;16.10;97.80
2867;DHT22;1441;48.886;8.728;2023-09-07T04:31:34;16.10;97.50
2867;DHT22;1441;48.886;8.728;2023-09-07T04:34:00;16.40;96.70
2867;DHT22;1441;48.886;8.728;2023-09-07T04:36:26;16.50;96.10
2867;DHT22;1441;48.886;8.728;2023-09-07T04:38:51;16.40;96.40
2867;DHT22;1441;48.886;8.728;2023-09-07T04:41:17;16.40;96.50
2867;DHT22;1441;48.886;8.728;2023-09-07T04:43:43;16.40;96.40
2867;DHT22;1441;48.886;8.728;2023-09-07T04:46:09;16.40;96.50
2867;DHT22;1441;48.886;8.728;2023-09-07T04:48:35;16.40;96.80
2867;DHT22;1441;48.886;8.728;2023-09-07T04:51:05;16.30;96.80
2867;DHT22;1441;48.886;8.728;2023-09-07T04:53:33;16.40;96.70
2867;DHT22;1441;48.886;8.728;2023-09-07T04:56:00;16.40;96.90
2867;DHT22;1441;48.886;8.728;2023-09-07T04:58:27;16.30;97.00
2867;DHT22;1441;48.886;8.728;2023-09-07T05:00:53;16.20;97.30
2867;DHT22;1441;48.886;8.728;2023-09-07T05:03:18;16.30;97.30
2867;DHT22;1441;48.886;8.728;2023-09-07T05:05:44;16.40;97.30
2867;DHT22;1441;48.886;8.728;2023-09-07T05:08:10;16.40;97.00
2867;DHT22;1441;48.886;8.728;2023-09-07T05:10:37;16.40;97.00
2867;DHT22;1441;48.886;8.728;2023-09-07T05:13:03;16.30;96.90
2867;DHT22;1441;48.886;8.728;2023-09-07T05:15:29;16.20;97.40
2867;DHT22;1441;48.886;8.728;2023-09-07T05:17:55;16.20;97.70
2867;DHT22;1441;48.886;8.728;2023-09-07T05:20:21;16.20;97.80
2867;DHT22;1441;48.886;8.728;2023-09-07T05:22:46;16.20;98.00
2867;DHT22;1441;48.886;8.728;2023-09-07T05:25:12;16.20;97.90
2867;DHT22;1441;48.886;8.728;2023-09-07T05:27:38;16.20;98.10
2867;DHT22;1441;48.886;8.728;2023-09-07T05:30:05;16.40;97.60
2867;DHT22;1441;48.886;8.728;2023-09-07T05:32:31;16.40;97.60
2867;DHT22;1441;48.886;8.728;2023-09-07T05:34:56;16.60;96.90
2867;DHT22;1441;48.886;8.728;2023-09-07T05:37:22;16.60;96.40
2867;DHT22;1441;48.886;8.728;2023-09-07T05:39:47;16.60;96.60
2867;DHT22;1441;48.886;8.728;2023-09-07T05:42:14;16.50;96.80
2867;DHT22;1441;48.886;8.728;2023-09-07T05:44:40;16.50;97.00
2867;DHT22;1441;48.886;8.728;2023-09-07T05:47:05;16.60;97.00
2867;DHT22;1441;48.886;8.728;2023-09-07T05:49:31;16.70;96.70
2867;DHT22;1441;48.886;8.728;2023-09-07T05:51:56;16.70;96.70
2867;DHT22;1441;48.886;8.728;2023-09-07T05:54:22;16.80;96.50
2867;DHT22;1441;48.886;8.728;2023-09-07T05:56:48;16.70;96.50
2867;DHT22;1441;48.886;8.728;2023-09-07T05:59:13;16.70;96.90
2867;DHT22;1441;48.886;8.728;2023-09-07T06:01:39;16.80;96.70
2867;DHT22;1441;48.886;8.728;2023-09-07T06:04:06;16.80;96.80
2867;DHT22;1441;48.886;8.728;2023-09-07T06:06:31;16.80;97.00
2867;DHT22;1441;48.886;8.728;2023-09-07T06:08:57;16.80;96.90
2867;DHT22;1441;48.886;8.728;2023-09-07T06:11:24;16.90;96.90
2867;DHT22;1441;48.886;8.728;2023-09-07T06:13:50;17.40;96.20
2867;DHT22;1441;48.886;8.728;2023-09-07T06:16:16;17.70;95.30
2867;DHT22;1441;48.886;8.728;2023-09-07T06:18:41;17.70;94.70
2867;DHT22;1441;48.886;8.728;2023-09-07T06:21:07;17.40;95.40
2867;DHT22;1441;48.886;8.728;2023-09-07T06:23:32;17.40;95.50
2867;DHT22;1441;48.886;8.728;2023-09-07T06:25:58;17.30;95.90
2867;DHT22;1441;48.886;8.728;2023-09-07T06:28:23;17.30;96.20
2867;DHT22;1441;48.886;8.728;2023-09-07T06:30:49;17.30;96.50
2867;DHT22;1441;48.886;8.728;2023-09-07T06:33:14;17.70;95.80
2867;DHT22;1441;48.886;8.728;2023-09-07T06:35:40;18.90;92.10
2867;DHT22;1441;48.886;8.728;2023-09-07T06:38:06;20.70;86.90
2867;DHT22;1441;48.886;8.728;2023-09-07T06:40:31;22.90;79.30
2867;DHT22;1441;48.886;8.728;2023-09-07T06:42:57;26.10;71.10
2867;DHT22;1441;48.886;8.728;2023-09-07T06:45:23;28.90;63.80
2867;DHT22;1441;48.886;8.728;2023-09-07T06:47:52;30.50;59.70
2867;DHT22;1441;48.886;8.728;2023-09-07T06:50:19;31.10;57.70
2867;DHT22;1441;48.886;8.728;2023-09-07T06:52:45;31.10;57.80
2867;DHT22;1441;48.886;8.728;2023-09-07T06:55:10;31.40;57.10
2867;DHT22;1441;48.886;8.728;2023-09-07T06:57:36;31.60;56.60
2867;DHT22;1441;48.886;8.728;2023-09-07T07:00:03;32.10;55.50
2867;DHT22;1441;48.886;8.728;2023-09-07T07:02:31;32.20;55.20
2867;DHT22;1441;48.886;8.728;2023-09-07T07:04:56;32.60;54.40
2867;DHT22;1441;48.886;8.728;2023-09-07T07:07:22;32.40;54.20
2867;DHT22;1441;48.886;8.728;2023-09-07T07:09:47;31.90;55.20
2867;DHT22;1441;48.886;8.728;2023-09-07T07:12:13;31.80;55.70
2867;DHT22;1441;48.886;8.728;2023-09-07T07:14:38;32.50;54.60
2867;DHT22;1441;48.886;8.728;2023-09-07T07:17:04;32.70;54.30
2867;DHT22;1441;48.886;8.728;2023-09-07T07:19:31;33.10;53.70
2867;DHT22;1441;48.886;8.728;2023-09-07T07:21:56;33.30;53.10
2867;DHT22;1441;48.886;8.728;2023-09-07T07:24:22;32.90;53.60
2867;DHT22;1441;48.886;8.728;2023-09-07T07:26:47;32.60;54.30
2867;DHT22;1441;48.886;8.728;2023-09-07T07:29:13;32.40;54.70
2867;DHT22;1441;48.886;8.728;2023-09-07T07:31:38;32.80;54.50
2867;DHT22;1441;48.886;8.728;2023-09-07T07:34:04;34.00;52.60
2867;DHT22;1441;48.886;8.728;2023-09-07T07:36:30;34.30;51.70
2867;DHT22;1441;48.886;8.728;2023-09-07T07:38:56;32.70;53.90
2867;DHT22;1441;48.886;8.728;2023-09-07T07:41:21;31.50;55.60
2867;DHT22;1441;48.886;8.728;2023-09-07T07:43:47;30.40;58.30
2867;DHT22;1441;48.886;8.728;2023-09-07T07:46:13;30.90;57.50
2867;DHT22;1441;48.886;8.728;2023-09-07T07:48:41;31.10;56.90
2867;DHT22;1441;48.886;8.728;2023-09-07T07:51:07;31.20;57.00
2867;DHT22;1441;48.886;8.728;2023-09-07T07:53:34;31.50;56.40
2867;DHT22;1441;48.886;8.728;2023-09-07T07:56:00;30.60;57.80
2867;DHT22;1441;48.886;8.728;2023-09-07T07:58:25;31.20;57.90
2867;DHT22;1441;48.886;8.728;2023-09-07T08:00:51;32.50;55.10
2867;DHT22;1441;48.886;8.728;2023-09-07T08:03:17;32.40;55.30
2867;DHT22;1441;48.886;8.728;2023-09-07T08:05:43;33.00;54.70
2867;DHT22;1441;48.886;8.728;2023-09-07T08:08:09;34.10;53.00
2867;DHT22;1441;48.886;8.728;2023-09-07T08:10:35;34.40;52.70
2867;DHT22;1441;48.886;8.728;2023-09-07T08:13:06;35.30;50.90
2867;DHT22;1441;48.886;8.728;2023-09-07T08:15:32;35.30;50.40
2867;DHT22;1441;48.886;8.728;2023-09-07T08:17:58;35.00;51.10
2867;DHT22;1441;48.886;8.728;2023-09-07T08:20:25;35.00;51.40
2867;DHT22;1441;48.886;8.728;2023-09-07T08:22:51;36.10;49.90
2867;DHT22;1441;48.886;8.728;2023-09-07T08:25:18;36.80;48.90
2867;DHT22;1441;48.886;8.728;2023-09-07T08:27:43;37.00;48.60
2867;DHT22;1441;48.886;8.728;2023-09-07T08:30:19;37.20;48.00
2867;DHT22;1441;48.886;8.728;2023-09-07T08:32:45;37.20;47.60
2867;DHT22;1441;48.886;8.728;2023-09-07T08:35:16;36.00;49.00
2867;DHT22;1441;48.886;8.728;2023-09-07T08:37:42;35.40;51.00
2867;DHT22;1441;48.886;8.728;2023-09-07T08:40:08;35.90;50.30
2867;DHT22;1441;48.886;8.728;2023-09-07T08:42:38;36.60;48.80
2867;DHT22;1441;48.886;8.728;2023-09-07T08:45:04;36.50;49.20
2867;DHT22;1441;48.886;8.728;2023-09-07T08:47:37;36.80;49.00
2867;DHT22;1441;48.886;8.728;2023-09-07T08:50:04;37.40;48.30
2867;DHT22;1441;48.886;8.728;2023-09-07T08:52:32;37.90;47.70
2867;DHT22;1441;48.886;8.728;2023-09-07T08:54:57;38.00;47.70
2867;DHT22;1441;48.886;8.728;2023-09-07T08:57:26;38.60;46.40
2867;DHT22;1441;48.886;8.728;2023-09-07T08:59:53;38.70;46.40
2867;DHT22;1441;48.886;8.728;2023-09-07T09:02:18;37.70;47.20
2867;DHT22;1441;48.886;8.728;2023-09-07T09:04:44;37.60;48.20
2867;DHT22;1441;48.886;8.728;2023-09-07T09:07:10;37.60;47.80
2867;DHT22;1441;48.886;8.728;2023-09-07T09:09:35;37.60;48.00
2867;DHT22;1441;48.886;8.728;2023-09-07T09:12:27;36.50;49.60
2867;DHT22;1441;48.886;8.728;2023-09-07T09:14:52;35.40;51.00
2867;DHT22;1441;48.886;8.728;2023-09-07T09:17:18;34.80;52.30
2867;DHT22;1441;48.886;8.728;2023-09-07T09:19:43;34.80;52.60
2867;DHT22;1441;48.886;8.728;2023-09-07T09:22:12;35.40;51.80
2867;DHT22;1441;48.886;8.728;2023-09-07T09:24:38;35.30;51.80
2867;DHT22;1441;48.886;8.728;2023-09-07T09:27:03;33.80;54.10
2867;DHT22;1441;48.886;8.728;2023-09-07T09:29:32;32.80;55.90
2867;DHT22;1441;48.886;8.728;2023-09-07T09:32:00;32.50;56.70
2867;DHT22;1441;48.886;8.728;2023-09-07T09:34:33;32.90;56.70
2867;DHT22;1441;48.886;8.728;2023-09-07T09:37:01;33.60;55.10
2867;DHT22;1441;48.886;8.728;2023-09-07T09:39:27;34.20;54.90
2867;DHT22;1441;48.886;8.728;2023-09-07T09:41:53;34.50;53.50
2867;DHT22;1441;48.886;8.728;2023-09-07T09:44:21;34.20;54.20
2867;DHT22;1441;48.886;8.728;2023-09-07T09:46:52;32.90;55.80
2867;DHT22;1441;48.886;8.728;2023-09-07T09:49:20;32.30;57.90
2867;DHT22;1441;48.886;8.728;2023-09-07T09:51:48;33.40;56.40
2867;DHT22;1441;48.886;8.728;2023-09-07T09:54:16;33.40;55.90
2867;DHT22;1441;48.886;8.728;2023-09-07T09:56:41;33.80;54.90
2867;DHT22;1441;48.886;8.728;2023-09-07T09:59:07;33.90;55.50
2867;DHT22;1441;48.886;8.728;2023-09-07T10:01:47;34.00;54.90
2867;DHT22;1441;48.886;8.728;2023-09-07T10:04:17;33.90;54.90
2867;DHT22;1441;48.886;8.728;2023-09-07T10:06:59;33.80;55.60
2867;DHT22;1441;48.886;8.728;2023-09-07T10:09:32;32.80;57.40
2867;DHT22;1441;48.886;8.728;2023-09-07T10:11:58;32.70;58.00
2867;DHT22;1441;48.886;8.728;2023-09-07T10:14:25;32.40;58.40
2867;DHT22;1441;48.886;8.728;2023-09-07T10:16:52;32.20;58.90
2867;DHT22;1441;48.886;8.728;2023-09-07T10:19:22;32.20;59.40
2867;DHT22;1441;48.886;8.728;2023-09-07T10:21:48;31.90;60.10
2867;DHT22;1441;48.886;8.728;2023-09-07T10:24:28;31.70;60.70
2867;DHT22;1441;48.886;8.728;2023-09-07T10:27:05;31.80;60.70
2867;DHT22;1441;48.886;8.728;2023-09-07T10:29:44;31.70;60.30
2867;DHT22;1441;48.886;8.728;2023-09-07T10:32:09;31.70;60.50
2867;DHT22;1441;48.886;8.728;2023-09-07T10:34:38;31.50;60.70
2867;DHT22;1441;48.886;8.728;2023-09-07T10:37:05;31.10;61.90
2867;DHT22;1441;48.886;8.728;2023-09-07T10:39:33;31.10;61.80
2867;DHT22;1441;48.886;8.728;2023-09-07T10:41:58;31.10;61.90
2867;DHT22;1441;48.886;8.728;2023-09-07T10:44:27;31.20;62.10
2867;DHT22;1441;48.886;8.728;2023-09-07T10:46:54;31.00;62.30
2867;DHT22;1441;48.886;8.728;2023-09-07T10:49:19;30.80;62.80
2867;DHT22;1441;48.886;8.728;2023-09-07T10:51:46;30.90;62.40
2867;DHT22;1441;48.886;8.728;2023-09-07T10:54:16;30.80;62.20
2867;DHT22;1441;48.886;8.728;2023-09-07T10:56:46;30.70;62.80
2867;DHT22;1441;48.886;8.728;2023-09-07T10:59:15;30.70;63.00
2867;DHT22;1441;48.886;8.728;2023-09-07T11:01:43;30.70;63.30
2867;DHT22;1441;48.886;8.728;2023-09-07T11:04:09;30.40;63.50
2867;DHT22;1441;48.886;8.728;2023-09-07T11:06:36;30.50;63.00
2867;DHT22;1441;48.886;8.728;2023-09-07T11:09:02;30.60;63.00
2867;DHT22;1441;48.886;8.728;2023-09-07T11:11:31;30.00;63.50
2867;DHT22;1441;48.886;8.728;2023-09-07T11:13:58;30.10;63.90
2867;DHT22;1441;48.886;8.728;2023-09-07T11:16:25;30.10;64.20
2867;DHT22;1441;48.886;8.728;2023-09-07T11:18:52;30.10;63.40
2867;DHT22;1441;48.886;8.728;2023-09-07T11:21:20;29.90;63.70
2867;DHT22;1441;48.886;8.728;2023-09-07T11:23:45;30.00;63.80
2867;DHT22;1441;48.886;8.728;2023-09-07T11:26:11;29.80;64.00
2867;DHT22;1441;48.886;8.728;2023-09-07T11:28:37;29.80;65.00
2867;DHT22;1441;48.886;8.728;2023-09-07T11:31:03;30.00;64.70
2867;DHT22;1441;48.886;8.728;2023-09-07T11:33:32;30.10;64.20
2867;DHT22;1441;48.886;8.728;2023-09-07T11:35:58;30.20;64.00
2867;DHT22;1441;48.886;8.728;2023-09-07T11:38:29;30.00;63.90
2867;DHT22;1441;48.886;8.728;2023-09-07T11:40:55;30.10;63.40
2867;DHT22;1441;48.886;8.728;2023-09-07T11:43:21;29.90;64.40
2867;DHT22;1441;48.886;8.728;2023-09-07T11:45:48;30.00;64.30
2867;DHT22;1441;48.886;8.728;2023-09-07T11:48:13;30.30;63.80
2867;DHT22;1441;48.886;8.728;2023-09-07T11:50:39;30.50;63.00
2867;DHT22;1441;48.886;8.728;2023-09-07T11:53:06;30.70;63.00
2867;DHT22;1441;48.886;8.728;2023-09-07T11:55:33;30.70;63.00
2867;DHT22;1441;48.886;8.728;2023-09-07T11:58:00;30.40;63.20
2867;DHT22;1441;48.886;8.728;2023-09-07T12:00:25;30.40;63.70
2867;DHT22;1441;48.886;8.728;2023-09-07T12:02:51;30.40;63.30
2867;DHT22;1441;48.886;8.728;2023-09-07T12:05:16;30.40;63.20
2867;DHT22;1441;48.886;8.728;2023-09-07T12:07:44;30.50;62.80
2867;DHT22;1441;48.886;8.728;2023-09-07T12:10:10;30.50;63.20
2867;DHT22;1441;48.886;8.728;2023-09-07T12:12:43;30.60;63.20
2867;DHT22;1441;48.886;8.728;2023-09-07T12:15:12;30.60;63.10
2867;DHT22;1441;48.886;8.728;2023-09-07T12:17:37;30.70;62.80
2867;DHT22;1441;48.886;8.728;2023-09-07T12:20:04;30.80;63.20
2867;DHT22;1441;48.886;8.728;2023-09-07T12:22:38;30.90;62.80
2867;DHT22;1441;48.886;8.728;2023-09-07T12:25:07;30.90;62.80
2867;DHT22;1441;48.886;8.728;2023-09-07T12:27:33;30.80;63.00
2867;DHT22;1441;48.886;8.728;2023-09-07T12:30:00;30.90;63.20
2867;DHT22;1441;48.886;8.728;2023-09-07T12:32:25;31.00;62.70
2867;DHT22;1441;48.886;8.728;2023-09-07T12:34:51;30.70;62.70
2867;DHT22;1441;48.886;8.728;2023-09-07T12:37:19;30.70;63.20
2867;DHT22;1441;48.886;8.728;2023-09-07T12:39:44;30.70;63.20
2867;DHT22;1441;48.886;8.728;2023-09-07T12:42:10;30.90;62.50
2867;DHT22;1441;48.886;8.728;2023-09-07T12:44:35;31.00;61.90
2867;DHT22;1441;48.886;8.728;2023-09-07T12:47:01;30.70;62.10
2867;DHT22;1441;48.886;8.728;2023-09-07T12:49:26;30.60;63.20
2867;DHT22;1441;48.886;8.728;2023-09-07T12:51:52;30.80;63.20
2867;DHT22;1441;48.886;8.728;2023-09-07T12:54:18;30.90;62.50
2867;DHT22;1441;48.886;8.728;2023-09-07T12:56:44;30.90;62.90
2867;DHT22;1441;48.886;8.728;2023-09-07T12:59:10;30.80;62.60
2867;DHT22;1441;48.886;8.728;2023-09-07T13:01:35;30.60;62.90
2867;DHT22;1441;48.886;8.728;2023-09-07T13:04:02;30.50;63.30
2867;DHT22;1441;48.886;8.728;2023-09-07T13:06:28;30.60;63.10
2867;DHT22;1441;48.886;8.728;2023-09-07T13:08:53;30.40;62.90
2867;DHT22;1441;48.886;8.728;2023-09-07T13:11:19;30.40;63.70
2867;DHT22;1441;48.886;8.728;2023-09-07T13:13:44;30.50;63.80
2867;DHT22;1441;48.886;8.728;2023-09-07T13:16:10;30.70;63.30
2867;DHT22;1441;48.886;8.728;2023-09-07T13:18:37;30.70;63.10
2867;DHT22;1441;48.886;8.728;2023-09-07T13:21:02;30.70;62.50
2867;DHT22;1441;48.886;8.728;2023-09-07T13:23:29;30.60;63.10
2867;DHT22;1441;48.886;8.728;2023-09-07T13:25:55;30.50;63.20
2867;DHT22;1441;48.886;8.728;2023-09-07T13:28:25;30.40;63.40
2867;DHT22;1441;48.886;8.728;2023-09-07T13:30:51;30.50;62.90
2867;DHT22;1441;48.886;8.728;2023-09-07T13:33:17;30.40;62.80
2867;DHT22;1441;48.886;8.728;2023-09-07T13:35:42;30.50;63.10
2867;DHT22;1441;48.886;8.728;2023-09-07T13:38:09;30.50;63.10
2867;DHT22;1441;48.886;8.728;2023-09-07T13:40:35;30.60;63.00
2867;DHT22;1441;48.886;8.728;2023-09-07T13:43:01;30.70;63.00
2867;DHT22;1441;48.886;8.728;2023-09-07T13:45:26;30.70;62.20
2867;DHT22;1441;48.886;8.728;2023-09-07T13:47:53;30.70;62.00
2867;DHT22;1441;48.886;8.728;2023-09-07T13:50:19;30.70;62.40
2867;DHT22;1441;48.886;8.728;2023-09-07T13:52:45;30.60;62.20
2867;DHT22;1441;48.886;8.728;2023-09-07T13:55:10;30.60;62.40
2867;DHT22;1441;48.886;8.728;2023-09-07T13:57:36;30.50;62.00
2867;DHT22;1441;48.886;8.728;2023-09-07T14:00:02;30.60;62.40
2867;DHT22;1441;48.886;8.728;2023-09-07T14:02:30;30.50;62.30
2867;DHT22;1441;48.886;8.728;2023-09-07T14:04:55;30.50;62.00
2867;DHT22;1441;48.886;8.728;2023-09-07T14:07:21;30.30;62.20
2867;DHT22;1441;48.886;8.728;2023-09-07T14:09:47;30.30;62.20
2867;DHT22;1441;48.886;8.728;2023-09-07T14:12:12;30.30;62.40
2867;DHT22;1441;48.886;8.728;2023-09-07T14:14:38;30.40;62.30
2867;DHT22;1441;48.886;8.728;2023-09-07T14:17:03;30.50;61.80
2867;DHT22;1441;48.886;8.728;2023-09-07T14:19:29;30.60;62.00
2867;DHT22;1441;48.886;8.728;2023-09-07T14:21:59;30.70;61.60
2867;DHT22;1441;48.886;8.728;2023-09-07T14:24:25;30.70;61.80
2867;DHT22;1441;48.886;8.728;2023-09-07T14:26:51;30.60;61.70
2867;DHT22;1441;48.886;8.728;2023-09-07T14:29:16;30.60;61.60
2867;DHT22;1441;48.886;8.728;2023-09-07T14:31:42;30.50;61.70
2867;DHT22;1441;48.886;8.728;2023-09-07T14:34:09;30.50;61.60
2867;DHT22;1441;48.886;8.728;2023-09-07T14:36:36;30.50;61.80
2867;DHT22;1441;48.886;8.728;2023-09-07T14:39:01;30.60;61.30
2867;DHT22;1441;48.886;8.728;2023-09-07T14:41:28;30.60;61.30
2867;DHT22;1441;48.886;8.728;2023-09-07T14:43:55;30.70;60.70
2867;DHT22;1441;48.886;8.728;2023-09-07T14:46:21;30.60;60.70
2867;DHT22;1441;48.886;8.728;2023-09-07T14:48:48;30.60;60.60
2867;DHT22;1441;48.886;8.728;2023-09-07T14:51:14;30.70;60.80
2867;DHT22;1441;48.886;8.728;2023-09-07T14:53:40;30.40;60.60
2867;DHT22;1441;48.886;8.728;2023-09-07T14:56:05;30.20;61.20
2867;DHT22;1441;48.886;8.728;2023-09-07T14:58:31;30.30;61.50
2867;DHT22;1441;48.886;8.728;2023-09-07T15:00:56;30.30;61.40
2867;DHT22;1441;48.886;8.728;2023-09-07T15:03:23;30.20;61.80
2867;DHT22;1441;48.886;8.728;2023-09-07T15:05:49;30.20;61.20
2867;DHT22;1441;48.886;8.728;2023-09-07T15:08:15;30.30;61.30
2867;DHT22;1441;48.886;8.728;2023-09-07T15:10:40;30.30;61.50
2867;DHT22;1441;48.886;8.728;2023-09-07T15:13:06;30.30;61.30
2867;DHT22;1441;48.886;8.728;2023-09-07T15:15:33;30.50;60.50
2867;DHT22;1441;48.886;8.728;2023-09-07T15:18:02;30.40;60.70
2867;DHT22;1441;48.886;8.728;2023-09-07T15:20:28;30.40;60.80
2867;DHT22;1441;48.886;8.728;2023-09-07T15:22:54;30.40;61.10
2867;DHT22;1441;48.886;8.728;2023-09-07T15:25:19;30.20;61.00
2867;DHT22;1441;48.886;8.728;2023-09-07T15:27:45;29.90;62.20
2867;DHT22;1441;48.886;8.728;2023-09-07T15:30:12;30.00;62.00
2867;DHT22;1441;48.886;8.728;2023-09-07T15:32:38;30.00;61.80
2867;DHT22;1441;48.886;8.728;2023-09-07T15:35:08;30.00;61.90
2867;DHT22;1441;48.886;8.728;2023-09-07T15:37:34;30.10;62.20
2867;DHT22;1441;48.886;8.728;2023-09-07T15:39:59;30.00;62.70
2867;DHT22;1441;48.886;8.728;2023-09-07T15:42:25;30.10;62.40
2867;DHT22;1441;48.886;8.728;2023-09-07T15:44:51;30.00;62.60
2867;DHT22;1441;48.886;8.728;2023-09-07T15:47:17;30.00;62.70
2867;DHT22;1441;48.886;8.728;2023-09-07T15:49:43;29.90;63.10
2867;DHT22;1441;48.886;8.728;2023-09-07T15:52:11;29.80;63.70
2867;DHT22;1441;48.886;8.728;2023-09-07T15:54:37;29.80;63.20
2867;DHT22;1441;48.886;8.728;2023-09-07T15:57:04;29.90;62.90